createdAt,value
2023-03-20T00:03:46.966Z,25.50
2023-03-20T00:08:42.455Z,20.50
2023-03-20T00:13:35.837Z,21.07
2023-03-20T00:18:30.395Z,21.00
2023-03-20T00:23:23.562Z,22.40
2023-03-20T00:28:32.651Z,21.17
2023-03-20T00:33:27.180Z,22.13
2023-03-20T00:38:21.738Z,21.60
2023-03-20T00:43:16.343Z,31.00
2023-03-20T00:48:12.788Z,28.67
2023-03-20T00:53:06.172Z,26.03
2023-03-20T00:58:06.749Z,22.60
2023-03-20T01:03:00.883Z,21.27
2023-03-20T01:07:54.017Z,21.03
2023-03-20T01:12:49.063Z,21.13
2023-03-20T01:17:43.875Z,19.77
2023-03-20T01:22:37.769Z,22.83
2023-03-20T01:27:32.234Z,20.13
2023-03-20T01:32:25.516Z,21.97
2023-03-20T01:37:28.173Z,21.53
2023-03-20T01:42:26.288Z,22.77
2023-03-20T01:47:22.196Z,21.37
2023-03-20T01:52:16.377Z,21.50
2023-03-20T01:57:15.281Z,31.00
2023-03-20T02:02:15.577Z,33.37
2023-03-20T02:07:12.181Z,26.77
2023-03-20T02:12:14.233Z,23.70
2023-03-20T02:17:10.767Z,21.50
2023-03-20T02:22:31.748Z,21.35
2023-03-20T02:27:34.450Z,24.10
2023-03-20T02:32:58.907Z,27.03
2023-03-20T02:38:23.717Z,29.90
2023-03-20T02:43:22.526Z,29.30
2023-03-20T02:48:28.512Z,26.60
2023-03-20T02:53:32.500Z,27.10
2023-03-20T02:58:29.753Z,24.07
2023-03-20T03:03:30.070Z,23.40
2023-03-20T03:08:36.431Z,21.97
2023-03-20T03:13:33.749Z,22.30
2023-03-20T03:18:29.318Z,19.93
2023-03-20T03:23:28.124Z,19.27
2023-03-20T03:28:30.530Z,17.80
2023-03-20T03:33:26.449Z,18.20
2023-03-20T03:38:31.643Z,18.67
2023-03-20T03:43:34.396Z,18.13
2023-03-20T03:48:32.710Z,18.97
2023-03-20T03:53:32.734Z,20.27
2023-03-20T03:58:33.238Z,22.38
2023-03-20T04:03:33.033Z,19.42
2023-03-20T04:08:26.310Z,19.33
2023-03-20T04:13:19.571Z,20.37
2023-03-20T04:18:16.790Z,20.20
2023-03-20T04:23:11.533Z,35.13
2023-03-20T04:28:05.230Z,32.67
2023-03-20T04:33:07.650Z,28.40
2023-03-20T04:38:11.430Z,33.67
2023-03-20T04:43:06.062Z,50.70
2023-03-20T04:48:04.115Z,27.27
2023-03-20T04:52:58.408Z,22.63
2023-03-20T04:57:54.673Z,25.47
2023-03-20T05:02:48.448Z,26.13
2023-03-20T05:07:43.117Z,31.83
2023-03-20T05:12:41.459Z,25.73
2023-03-20T05:17:39.033Z,22.90
2023-03-20T05:22:41.145Z,18.13
2023-03-20T05:27:39.373Z,19.30
2023-03-20T05:33:03.269Z,21.07
2023-03-20T05:38:07.719Z,21.13
2023-03-20T05:43:16.865Z,25.27
2023-03-20T05:48:29.971Z,22.30
2023-03-20T05:53:42.399Z,20.93
2023-03-20T05:59:02.932Z,22.17
2023-03-20T06:04:07.267Z,20.67
2023-03-20T06:09:23.293Z,29.90
2023-03-20T06:14:17.237Z,24.13
2023-03-20T06:19:18.326Z,23.83
2023-03-20T06:24:12.464Z,23.43
2023-03-20T06:29:06.946Z,22.13
2023-03-20T06:34:01.294Z,32.90
2023-03-20T06:38:57.580Z,44.27
2023-03-20T06:43:52.920Z,28.30
2023-03-20T06:48:48.848Z,31.67
2023-03-20T06:53:44.277Z,21.38
2023-03-20T06:58:47.401Z,19.90
2023-03-20T07:03:41.400Z,16.55
2023-03-20T07:08:37.028Z,16.75
2023-03-20T07:13:32.654Z,16.45
2023-03-20T07:18:50.512Z,16.63
2023-03-20T07:23:57.204Z,16.48
2023-03-20T07:28:52.210Z,16.42
2023-03-20T07:33:52.535Z,16.50
2023-03-20T07:38:46.424Z,15.18
2023-03-20T07:43:39.859Z,15.18
2023-03-20T07:49:03.492Z,14.70
2023-03-20T07:53:56.771Z,14.13
2023-03-20T07:58:52.835Z,13.55
2023-03-20T08:04:02.915Z,15.10
2023-03-20T08:08:57.924Z,13.98
2023-03-20T08:13:56.607Z,15.25
2023-03-20T08:18:50.701Z,14.82
2023-03-20T08:23:44.195Z,13.38
2023-03-20T08:28:47.427Z,15.55
2023-03-20T08:33:42.949Z,14.45
2023-03-20T08:38:36.321Z,14.13
2023-03-20T08:43:34.180Z,14.50
2023-03-20T08:48:29.804Z,13.82
2023-03-20T08:53:23.157Z,12.75
2023-03-20T08:58:16.512Z,12.32
2023-03-20T09:03:15.968Z,13.13
2023-03-20T09:08:13.368Z,12.10
2023-03-20T09:13:23.753Z,12.13
2023-03-20T09:18:20.614Z,11.27
2023-03-20T09:23:15.402Z,11.45
2023-03-20T09:28:08.869Z,10.85
2023-03-20T09:33:02.229Z,11.07
2023-03-20T09:37:59.404Z,10.63
2023-03-20T09:43:01.867Z,10.95
2023-03-20T09:48:02.540Z,10.80
2023-03-20T09:53:07.306Z,10.00
2023-03-20T09:58:11.606Z,10.40
2023-03-20T10:03:06.364Z,11.40
2023-03-20T10:08:03.150Z,10.68
2023-03-20T10:13:08.181Z,11.13
2023-03-20T10:18:06.831Z,11.48
2023-03-20T10:23:08.647Z,11.80
2023-03-20T10:28:04.492Z,11.27
2023-03-20T10:33:13.470Z,9.57
2023-03-20T10:38:23.821Z,8.75
2023-03-20T10:43:21.521Z,9.52
2023-03-20T10:48:24.796Z,9.15
2023-03-20T10:53:29.119Z,7.22
2023-03-20T10:58:24.709Z,8.32
2023-03-20T11:03:30.659Z,6.03
2023-03-20T11:08:25.700Z,8.13
2023-03-20T11:13:29.490Z,6.85
2023-03-20T11:18:33.197Z,6.75
2023-03-20T11:23:28.186Z,5.13
2023-03-20T11:28:32.289Z,5.47
2023-03-20T11:33:28.098Z,5.95
2023-03-20T11:38:22.655Z,5.30
2023-03-20T11:43:19.740Z,4.75
2023-03-20T11:48:22.942Z,4.60
2023-03-20T11:53:24.850Z,5.00
2023-03-20T11:58:18.641Z,4.78
2023-03-20T12:03:40.588Z,6.18
2023-03-20T12:08:39.798Z,6.63
2023-03-20T12:13:38.934Z,6.60
2023-03-20T12:18:35.918Z,5.80
2023-03-20T12:23:59.382Z,6.38
2023-03-20T12:28:57.542Z,6.55
2023-03-20T12:33:56.073Z,8.38
2023-03-20T12:38:50.753Z,7.97
2023-03-20T12:44:04.470Z,6.82
2023-03-20T12:49:12.530Z,7.15
2023-03-20T12:54:23.748Z,6.50
2023-03-20T12:59:34.218Z,7.10
2023-03-20T13:04:56.688Z,6.53
2023-03-20T13:10:04.659Z,6.25
2023-03-20T13:15:06.469Z,6.32
2023-03-20T13:20:19.205Z,5.72
2023-03-20T13:25:26.358Z,5.82
2023-03-20T13:30:28.061Z,5.97
2023-03-20T13:35:34.326Z,6.18
2023-03-20T13:40:38.699Z,5.28
2023-03-20T13:45:37.758Z,7.25
2023-03-20T13:50:45.954Z,6.55
2023-03-20T13:55:54.673Z,5.32
2023-03-20T14:00:56.792Z,5.65
2023-03-20T14:10:47.979Z,5.75
2023-03-20T14:15:54.789Z,5.43
2023-03-20T14:20:57.062Z,5.43
2023-03-20T14:25:56.065Z,6.63
2023-03-20T14:30:50.843Z,7.30
2023-03-20T14:35:46.623Z,5.30
2023-03-20T14:40:49.064Z,5.38
2023-03-20T14:45:46.441Z,5.15
2023-03-20T14:50:43.475Z,5.60
2023-03-20T14:55:51.398Z,6.88
2023-03-20T15:00:49.240Z,5.78
2023-03-20T15:05:42.987Z,6.22
2023-03-20T15:10:38.671Z,5.97
2023-03-20T15:15:32.652Z,5.95
2023-03-20T15:20:29.481Z,6.20
2023-03-20T15:25:24.786Z,6.53
2023-03-20T15:30:20.217Z,5.78
2023-03-20T15:35:16.089Z,6.90
2023-03-20T15:40:23.027Z,5.95
2023-03-20T15:45:28.746Z,6.35
2023-03-20T15:50:21.973Z,7.47
2023-03-20T15:55:20.831Z,6.90
2023-03-20T16:00:17.906Z,37.50
2023-03-20T16:05:14.574Z,15.35
2023-03-20T16:10:20.446Z,11.15
2023-03-20T16:15:18.058Z,8.88
2023-03-20T16:20:15.898Z,8.82
2023-03-20T16:25:46.876Z,9.25
2023-03-20T16:31:12.647Z,8.18
2023-03-20T16:36:12.964Z,8.90
2023-03-20T16:42:26.264Z,11.60
2023-03-20T16:54:57.506Z,16.85
2023-03-20T17:00:09.748Z,20.08
2023-03-20T17:05:10.323Z,19.20
2023-03-20T17:10:22.012Z,17.92
2023-03-20T17:15:24.453Z,23.10
2023-03-20T17:20:36.535Z,20.30
2023-03-20T17:25:49.368Z,20.80
2023-03-20T17:31:00.911Z,20.83
2023-03-20T17:36:11.062Z,20.48
2023-03-20T17:41:52.355Z,17.90
2023-03-20T17:46:59.198Z,18.80
2023-03-20T17:52:13.713Z,18.65
2023-03-20T17:57:25.153Z,18.27
2023-03-20T18:02:26.601Z,18.85
2023-03-20T18:07:21.164Z,29.23
2023-03-20T18:12:16.982Z,31.27
2023-03-20T18:17:18.202Z,23.77
2023-03-20T18:27:54.604Z,18.75
2023-03-20T18:39:13.537Z,16.25
2023-03-20T18:44:35.529Z,15.82
2023-03-20T18:50:36.923Z,15.85
2023-03-20T18:56:20.667Z,13.77
2023-03-20T19:01:44.273Z,14.77
2023-03-20T19:08:09.972Z,17.65
2023-03-20T19:31:17.533Z,54.75
2023-03-20T19:41:48.465Z,58.53
2023-03-20T19:46:55.757Z,81.65
2023-03-20T19:52:05.597Z,73.60
2023-03-20T20:02:28.666Z,40.65
2023-03-20T20:13:00.181Z,38.50
2023-03-20T20:18:27.139Z,33.15
2023-03-20T20:23:40.715Z,27.70
2023-03-20T20:41:12.509Z,30.63
2023-03-20T20:46:17.909Z,27.07
2023-03-20T20:51:29.242Z,28.88
2023-03-20T20:56:23.896Z,25.52
2023-03-20T21:01:19.987Z,26.08
2023-03-20T21:06:13.322Z,29.38
2023-03-20T21:11:08.570Z,30.00
2023-03-20T21:16:02.049Z,26.40
2023-03-20T21:20:55.800Z,23.70
2023-03-20T21:25:49.617Z,26.52
2023-03-20T21:31:09.100Z,23.83
2023-03-20T21:35:57.888Z,23.00
2023-03-20T21:40:51.433Z,21.70
2023-03-20T21:51:49.381Z,21.13
2023-03-20T21:56:51.433Z,22.20
2023-03-20T22:07:32.831Z,23.52
2023-03-20T22:12:56.280Z,43.97
2023-03-20T22:28:15.777Z,28.52
2023-03-20T22:33:51.381Z,28.45
2023-03-20T22:48:33.820Z,30.02
2023-03-20T22:53:27.199Z,24.23
2023-03-20T22:58:20.656Z,22.70
2023-03-20T23:03:29.541Z,24.38
2023-03-20T23:08:28.494Z,22.00
2023-03-20T23:13:23.041Z,32.22
2023-03-20T23:18:16.476Z,33.72
2023-03-20T23:23:09.858Z,31.77
2023-03-20T23:28:04.929Z,23.13
2023-03-20T23:32:58.076Z,26.15
2023-03-20T23:37:51.315Z,29.30
2023-03-20T23:42:44.741Z,26.15
2023-03-20T23:47:44.842Z,24.85
2023-03-20T23:52:40.820Z,23.15
2023-03-20T23:57:42.175Z,20.73
